Time;durP1;ratioP1;P1;durP2;ratioP2;P2;SDS_P1;SDS_P2;PMS_P1;PMS_P2;Temp;Humidity;BMP_temperature;BMP_pressure;BME280_temperature;BME280_humidity;BME280_pressure;Samples;Min_cycle;Max_cycle;Signal;HPM_P1;HPM_P2
2021/12/10 00:03:22;;;;;;;5.63;1.85;;;15.90;45.30;;;;;;5130318;27;20407;-62
2021/12/10 00:05:53;;;;;;;3.65;1.83;;;15.90;45.30;;;;;;5128339;28;20047;-63
2021/12/10 00:08:25;;;;;;;3.38;1.52;;;15.90;46.00;;;;;;5128988;28;20558;-63
2021/12/10 00:10:55;;;;;;;6.35;2.35;;;15.90;45.20;;;;;;5128822;28;20047;-63
2021/12/10 00:13:21;;;;;;;3.72;1.52;;;15.90;45.30;;;;;;5128851;28;20047;-63
2021/12/10 00:15:47;;;;;;;4.45;1.95;;;15.90;45.30;;;;;;5129958;28;20035;-62
2021/12/10 00:18:16;;;;;;;3.00;1.33;;;15.90;45.30;;;;;;5128384;28;20073;-63
2021/12/10 00:39:44;;;;;;;4.65;1.73;;;15.80;45.30;;;;;;5129662;27;20035;-63
2021/12/10 00:42:14;;;;;;;6.03;1.92;;;15.80;45.30;;;;;;5128219;28;20048;-63
2021/12/10 00:44:41;;;;;;;3.20;1.75;;;15.90;45.40;;;;;;5129658;27;20519;-62
2021/12/10 00:47:07;;;;;;;3.05;1.48;;;15.80;45.30;;;;;;5129379;27;20038;-62
2021/12/10 00:49:36;;;;;;;5.07;2.17;;;15.80;45.40;;;;;;5129402;27;20037;-62
2021/12/10 00:52:05;;;;;;;3.05;1.50;;;15.80;45.40;;;;;;5128003;28;20100;-63
2021/12/10 00:54:30;;;;;;;3.22;1.23;;;15.80;45.40;;;;;;5128397;28;20047;-63
2021/12/10 00:56:56;;;;;;;2.88;1.60;;;15.80;45.50;;;;;;5129332;28;20494;-62
2021/12/10 00:59:22;;;;;;;3.63;1.73;;;15.80;45.50;;;;;;5129248;28;20406;-62
2021/12/10 01:01:49;;;;;;;2.50;1.35;;;15.80;45.50;;;;;;5127527;28;20464;-63
2021/12/10 01:04:21;;;;;;;3.15;1.23;;;15.80;45.50;;;;;;5127821;28;20513;-63
2021/12/10 01:06:53;;;;;;;1.73;1.20;;;15.80;45.50;;;;;;5129110;27;20039;-62
2021/12/10 01:09:25;;;;;;;5.18;1.48;;;15.70;45.50;;;;;;5128090;28;20092;-62
2021/12/10 01:11:55;;;;;;;6.47;1.45;;;15.70;45.50;;;;;;5129032;27;20046;-63
2021/12/10 01:14:40;;;;;;;4.90;1.70;;;15.70;45.50;;;;;;5115622;28;20047;-62
2021/12/10 01:25:51;;;;;;;2.25;1.17;;;15.70;45.50;;;;;;5114930;28;20040;-63
2021/12/10 01:28:09;;;;;;;2.53;1.63;;;15.70;45.50;;;;;;5114877;28;20054;-62
2021/12/10 01:30:38;;;;;;;3.53;1.95;;;15.70;45.50;;;;;;5113987;28;20051;-62
2021/12/10 01:33:08;;;;;;;3.65;1.27;;;15.70;45.50;;;;;;5113663;28;20070;-63
2021/12/10 01:35:39;;;;;;;3.88;1.00;;;15.70;45.50;;;;;;5114854;28;20046;-62
2021/12/10 01:38:07;;;;;;;3.65;1.40;;;15.70;45.60;;;;;;5114836;28;20036;-62
2021/12/10 01:40:39;;;;;;;1.80;1.23;;;15.70;45.60;;;;;;5113784;28;20406;-62
2021/12/10 01:43:07;;;;;;;4.53;1.20;;;15.70;45.50;;;;;;5113362;28;20122;-63
2021/12/10 01:45:46;;;;;;;4.10;1.30;;;15.70;45.50;;;;;;5114721;28;20039;-63
2021/12/10 01:48:17;;;;;;;2.35;1.10;;;15.70;45.50;;;;;;5113305;28;20047;-63
2021/12/10 01:50:42;;;;;;;;;;;15.70;45.50;;;;;;5115200;28;20040;-62
2021/12/10 01:53:12;;;;;;;2.33;1.02;;;15.70;45.50;;;;;;5113542;28;19965;-63
2021/12/10 01:55:41;;;;;;;3.67;1.60;;;15.60;45.50;;;;;;5113547;28;20058;-63
2021/12/10 01:58:10;;;;;;;3.47;1.38;;;15.60;45.50;;;;;;5113436;28;20116;-63
2021/12/10 02:00:38;;;;;;;3.53;1.42;;;15.60;45.50;;;;;;5113442;28;20039;-62
2021/12/10 02:03:05;;;;;;;3.05;1.50;;;15.60;45.60;;;;;;5112735;28;20055;-63
2021/12/10 02:05:30;;;;;;;3.78;1.40;;;15.60;45.50;;;;;;5114441;28;20486;-62
2021/12/10 02:07:58;;;;;;;2.70;1.42;;;15.60;45.60;;;;;;5114204;28;20046;-63
2021/12/10 02:10:26;;;;;;;4.25;1.35;;;15.60;45.50;;;;;;5114398;27;20035;-63
2021/12/10 02:12:52;;;;;;;2.70;1.17;;;15.80;45.40;;;;;;5114206;27;20040;-62
2021/12/10 02:15:26;;;;;;;3.05;0.95;;;16.30;44.60;;;;;;5112993;28;20386;-63
2021/12/10 02:17:53;;;;;;;3.15;1.00;;;17.20;43.20;;;;;;5114058;28;20036;-62
2021/12/10 02:20:28;;;;;;;3.08;0.80;;;18.30;41.20;;;;;;5112733;28;20115;-63
2021/12/10 02:22:54;;;;;;;1.75;0.65;;;19.50;39.00;;;;;;5113917;28;20122;-62
2021/12/10 02:25:27;;;;;;;3.42;0.73;;;20.80;36.70;;;;;;5111589;28;20036;-62
2021/12/10 02:27:55;;;;;;;2.78;0.65;;;21.80;35.00;;;;;;5113878;28;20169;-63
2021/12/10 02:30:23;;;;;;;2.55;0.60;;;22.50;33.60;;;;;;5112524;28;20118;-62
2021/12/10 02:32:49;;;;;;;1.77;0.63;;;23.00;32.70;;;;;;5112535;28;20517;-63
2021/12/10 02:35:16;;;;;;;2.50;0.68;;;23.50;32.00;;;;;;5113792;28;20039;-62
2021/12/10 02:37:43;;;;;;;2.55;0.40;;;23.90;31.40;;;;;;5113695;28;20521;-63
2021/12/10 02:40:17;;;;;;;1.13;0.50;;;24.20;30.90;;;;;;5113539;28;20040;-63
2021/12/10 02:42:43;;;;;;;2.72;0.90;;;24.50;30.40;;;;;;5113453;28;20047;-63
2021/12/10 02:45:11;;;;;;;2.75;0.70;;;24.70;30.00;;;;;;5113549;28;20039;-62
2021/12/10 02:47:44;;;;;;;2.25;0.70;;;24.90;29.80;;;;;;5112171;28;20039;-62
2021/12/10 02:50:12;;;;;;;2.40;0.70;;;25.00;29.70;;;;;;5112323;28;20040;-62
2021/12/10 02:52:38;;;;;;;1.38;0.60;;;25.00;29.60;;;;;;5112113;28;20059;-63
2021/12/10 02:55:10;;;;;;;2.15;0.55;;;24.90;29.60;;;;;;5112297;28;20044;-63
2021/12/10 02:57:39;;;;;;;2.80;0.63;;;24.80;29.70;;;;;;5113257;28;20118;-63
2021/12/10 03:00:09;;;;;;;1.55;0.40;;;24.70;29.90;;;;;;5113350;28;20406;-62
2021/12/10 03:02:34;;;;;;;1.50;0.60;;;24.40;30.00;;;;;;5112911;28;20052;-62
2021/12/10 03:05:01;;;;;;;2.67;0.82;;;24.20;30.20;;;;;;5113013;28;20562;-62
2021/12/10 03:07:30;;;;;;;3.05;0.60;;;24.00;30.50;;;;;;5113120;28;20380;-62
2021/12/10 03:09:56;;;;;;;2.28;0.70;;;23.70;30.80;;;;;;5111931;28;20035;-63
2021/12/10 03:12:23;;;;;;;2.05;0.80;;;23.60;31.10;;;;;;5111988;28;20115;-63
2021/12/10 03:14:52;;;;;;;2.97;0.70;;;23.30;31.30;;;;;;5113013;28;20051;-62
2021/12/10 03:17:23;;;;;;;1.83;0.50;;;23.20;31.60;;;;;;5111610;28;20075;-63
2021/12/10 03:19:53;;;;;;;1.60;0.75;;;23.00;31.80;;;;;;5112920;28;20067;-62
2021/12/10 03:22:19;;;;;;;3.40;0.98;;;22.90;32.00;;;;;;5111641;28;20169;-62
2021/12/10 03:24:47;;;;;;;4.00;0.82;;;22.70;32.20;;;;;;5111428;28;20494;-62
2021/12/10 03:27:14;;;;;;;1.60;0.57;;;22.60;32.40;;;;;;5112892;28;20172;-63
2021/12/10 03:29:44;;;;;;;1.73;0.55;;;22.50;32.60;;;;;;5111471;28;20479;-62
2021/12/10 03:32:15;;;;;;;2.65;0.88;;;22.40;32.70;;;;;;5111673;28;20054;-62
2021/12/10 03:34:41;;;;;;;1.63;0.60;;;22.30;32.70;;;;;;5111663;28;20051;-63
2021/12/10 03:37:07;;;;;;;1.67;0.60;;;22.40;32.60;;;;;;5111166;28;20043;-63
2021/12/10 03:39:34;;;;;;;1.67;0.57;;;22.60;32.50;;;;;;5111528;28;20046;-63
2021/12/10 03:42:00;;;;;;;2.72;0.85;;;22.80;32.00;;;;;;5112695;28;20108;-63
2021/12/10 03:44:27;;;;;;;3.47;0.70;;;23.10;31.70;;;;;;5112610;28;20038;-62
2021/12/10 03:46:54;;;;;;;2.25;0.57;;;23.40;31.20;;;;;;5112449;28;20085;-63
2021/12/10 03:49:20;;;;;;;1.33;0.60;;;23.70;30.70;;;;;;5111177;28;20048;-63
2021/12/10 03:51:46;;;;;;;2.03;0.73;;;24.00;30.40;;;;;;5111106;28;20089;-63
2021/12/10 03:54:16;;;;;;;2.13;0.50;;;24.10;30.00;;;;;;5112455;28;20036;-63
2021/12/10 03:56:46;;;;;;;1.77;0.77;;;24.30;30.00;;;;;;5112582;28;20406;-63
2021/12/10 03:59:14;;;;;;;2.30;0.63;;;24.40;29.80;;;;;;5111388;28;20050;-63
2021/12/10 04:01:44;;;;;;;2.22;0.63;;;24.40;29.70;;;;;;5110679;28;20127;-63
2021/12/10 04:04:19;;;;;;;1.90;0.82;;;24.40;29.70;;;;;;5112408;28;20432;-63
2021/12/10 04:06:45;;;;;;;1.90;0.80;;;24.30;29.70;;;;;;5110919;28;20040;-63
2021/12/10 04:09:11;;;;;;;2.35;0.70;;;24.20;29.80;;;;;;5112317;28;20117;-62
2021/12/10 04:11:40;;;;;;;2.42;0.68;;;24.10;29.90;;;;;;5112464;28;20078;-63
2021/12/10 04:14:06;;;;;;;1.75;0.85;;;24.00;30.00;;;;;;5111164;28;20376;-63
2021/12/10 04:16:33;;;;;;;2.92;0.60;;;23.80;30.20;;;;;;5111203;28;20092;-63
2021/12/10 04:19:02;;;;;;;1.95;0.60;;;23.60;30.30;;;;;;5110865;28;20047;-63
2021/12/10 04:21:28;;;;;;;2.10;0.70;;;23.40;30.60;;;;;;5110801;28;20051;-63
2021/12/10 04:23:54;;;;;;;1.85;0.50;;;23.30;30.80;;;;;;5112068;28;20059;-63
2021/12/10 04:26:24;;;;;;;2.10;0.65;;;23.10;31.00;;;;;;5112177;28;20141;-63
2021/12/10 04:28:51;;;;;;;1.98;0.77;;;22.90;31.20;;;;;;5112112;28;20034;-63
2021/12/10 04:31:19;;;;;;;1.50;0.70;;;22.80;31.40;;;;;;5110829;28;20475;-63
2021/12/10 04:33:45;;;;;;;2.03;0.80;;;22.70;31.50;;;;;;5111991;28;20035;-63
2021/12/10 04:36:10;;;;;;;1.98;0.82;;;22.60;31.60;;;;;;5110888;28;20124;-63
2021/12/10 04:38:36;;;;;;;2.35;0.90;;;22.50;31.70;;;;;;5110724;28;20471;-63
2021/12/10 04:41:05;;;;;;;2.25;0.70;;;22.40;31.90;;;;;;5110993;28;20126;-63
2021/12/10 04:43:34;;;;;;;2.38;1.00;;;22.30;31.90;;;;;;5110612;28;20047;-63
2021/12/10 04:46:00;;;;;;;1.30;0.57;;;22.30;31.90;;;;;;5110691;28;20487;-63
2021/12/10 04:48:27;;;;;;;2.47;0.88;;;22.40;31.90;;;;;;5113005;28;20071;-63
2021/12/10 04:51:00;;;;;;;1.48;0.80;;;22.50;31.80;;;;;;5094314;28;20122;-63
2021/12/10 04:53:25;;;;;;;2.97;1.00;;;22.50;31.60;;;;;;5095466;28;20036;-63
2021/12/10 04:55:51;;;;;;;1.35;0.50;;;22.60;31.40;;;;;;5094262;28;20105;-62
2021/12/10 04:58:17;;;;;;;1.48;0.60;;;22.80;31.20;;;;;;5094164;28;20074;-62
2021/12/10 05:00:48;;;;;;;1.58;0.60;;;22.80;31.00;;;;;;5093822;28;20468;-63
2021/12/10 05:03:14;;;;;;;1.60;0.70;;;22.90;30.90;;;;;;5093792;28;20059;-63
2021/12/10 05:05:42;;;;;;;1.92;0.70;;;23.10;30.60;;;;;;5095002;28;20054;-62
2021/12/10 05:08:09;;;;;;;3.55;1.23;;;23.10;30.40;;;;;;5094047;28;20044;-63
2021/12/10 05:10:35;;;;;;;1.42;0.68;;;23.20;30.30;;;;;;5095112;28;20105;-63
2021/12/10 05:13:01;;;;;;;2.10;0.80;;;23.30;30.20;;;;;;5094958;28;20044;-63
2021/12/10 05:15:31;;;;;;;1.38;0.70;;;23.40;30.00;;;;;;5093558;28;20071;-63
2021/12/10 05:17:57;;;;;;;1.73;0.57;;;23.50;30.00;;;;;;5094953;28;20177;-62
2021/12/10 05:20:29;;;;;;;1.42;0.40;;;23.50;29.90;;;;;;5093716;28;20048;-63
2021/12/10 05:22:55;;;;;;;1.25;0.50;;;23.50;29.90;;;;;;5094744;28;20411;-63
2021/12/10 05:25:21;;;;;;;2.03;0.68;;;23.60;29.80;;;;;;5093433;28;20047;-63
2021/12/10 05:27:50;;;;;;;1.52;0.50;;;23.50;29.80;;;;;;5094692;28;20043;-62
2021/12/10 05:30:19;;;;;;;1.33;0.88;;;23.50;29.80;;;;;;5094743;28;20036;-63
2021/12/10 05:32:45;;;;;;;1.05;0.68;;;23.50;29.70;;;;;;5110271;28;20040;-63
2021/12/10 05:35:12;;;;;;;1.70;0.60;;;23.50;29.80;;;;;;5094753;28;20051;-63
2021/12/10 05:37:37;;;;;;;1.90;0.93;;;23.40;29.80;;;;;;5110312;28;20048;-62
2021/12/10 05:40:11;;;;;;;3.30;0.90;;;23.30;29.90;;;;;;5093434;28;20048;-63
2021/12/10 05:42:36;;;;;;;1.40;0.50;;;23.20;30.00;;;;;;5093135;28;20044;-62
2021/12/10 05:45:03;;;;;;;2.38;0.80;;;23.10;30.00;;;;;;5094401;28;20108;-62
2021/12/10 05:47:29;;;;;;;1.98;0.63;;;22.90;30.20;;;;;;5094350;28;20032;-63
2021/12/10 05:49:55;;;;;;;1.35;0.63;;;22.80;30.20;;;;;;5105673;28;20447;-62
2021/12/10 05:52:20;;;;;;;1.45;0.68;;;22.70;30.40;;;;;;5113550;28;20495;-62
2021/12/10 05:54:46;;;;;;;1.83;0.82;;;22.50;30.60;;;;;;5113341;28;20044;-63
2021/12/10 05:57:12;;;;;;;1.15;0.57;;;22.40;30.80;;;;;;5113146;28;20131;-63
2021/12/10 05:59:40;;;;;;;1.20;0.75;;;22.20;31.00;;;;;;5114292;28;20050;-63
2021/12/10 06:02:06;;;;;;;2.35;0.80;;;22.10;31.10;;;;;;5113939;28;20124;-63
2021/12/10 06:04:33;;;;;;;1.33;0.60;;;22.00;31.20;;;;;;5113059;28;20035;-63
2021/12/10 06:06:59;;;;;;;1.15;0.75;;;21.90;31.30;;;;;;5114294;28;20081;-63
2021/12/10 06:09:25;;;;;;;1.38;0.60;;;21.90;31.40;;;;;;5114401;28;20414;-63
2021/12/10 06:11:51;;;;;;;2.30;0.68;;;21.80;31.50;;;;;;5113058;28;20043;-62
2021/12/10 06:14:17;;;;;;;1.35;0.68;;;21.80;31.60;;;;;;5114228;28;20035;-63
2021/12/10 06:16:42;;;;;;;2.42;0.70;;;21.70;31.50;;;;;;5114092;28;20502;-62
2021/12/10 06:19:08;;;;;;;1.95;0.60;;;21.70;31.70;;;;;;5112731;28;20042;-62
2021/12/10 06:21:36;;;;;;;2.35;0.80;;;21.60;31.70;;;;;;5112625;28;20044;-62
2021/12/10 06:24:04;;;;;;;1.60;0.60;;;21.60;31.70;;;;;;5112779;28;20491;-63
2021/12/10 06:26:30;;;;;;;0.90;0.50;;;21.60;31.70;;;;;;5113940;28;20165;-63
2021/12/10 06:28:55;;;;;;;1.35;0.40;;;21.50;31.70;;;;;;5113986;28;20038;-63
2021/12/10 06:31:23;;;;;;;1.88;0.75;;;21.50;31.70;;;;;;5112802;28;20039;-63
2021/12/10 06:33:50;;;;;;;2.72;0.55;;;21.50;31.70;;;;;;5112482;28;20044;-63
2021/12/10 06:36:18;;;;;;;2.20;0.80;;;21.50;31.80;;;;;;5113287;28;20505;-63
2021/12/10 06:38:45;;;;;;;4.35;0.80;;;21.50;32.60;;;;;;5112368;28;20036;-63
2021/12/10 06:41:13;;;;;;;3.35;0.85;;;21.60;32.00;;;;;;5111156;28;20043;-63
2021/12/10 06:43:40;;;;;;;3.55;0.90;;;21.70;32.20;;;;;;5112170;28;20062;-63
2021/12/10 06:46:06;;;;;;;1.63;0.50;;;21.70;32.30;;;;;;5113002;28;20042;-63
2021/12/10 06:48:33;;;;;;;4.03;1.38;;;21.60;32.30;;;;;;5112966;28;20514;-62
2021/12/10 06:51:09;;;;;;;3.08;0.73;;;21.60;32.40;;;;;;5110590;28;20114;-62
2021/12/10 06:53:36;;;;;;;4.60;1.00;;;21.60;32.30;;;;;;5110600;28;20043;-62
2021/12/10 06:56:04;;;;;;;3.63;1.10;;;21.60;32.20;;;;;;5109948;28;20134;-63
2021/12/10 06:58:32;;;;;;;4.65;1.20;;;21.60;32.10;;;;;;5109568;28;20731;-63
2021/12/10 07:03:42;;;;;;;2.45;0.90;;;21.70;32.10;;;;;;5107640;27;20410;-63
2021/12/10 07:06:09;;;;;;;3.03;1.60;;;21.80;31.80;;;;;;5089406;28;20047;-63
2021/12/10 07:08:38;;;;;;;5.07;1.50;;;21.50;31.50;;;;;;5087434;28;20043;-62
2021/12/10 07:11:06;;;;;;;3.08;1.15;;;21.20;31.60;;;;;;5088994;28;20124;-62
2021/12/10 07:13:35;;;;;;;1.13;1.02;;;21.00;32.00;;;;;;5106709;28;20028;-62
2021/12/10 07:16:05;;;;;;;3.67;0.98;;;21.10;32.20;;;;;;5087067;28;20773;-62
2021/12/10 07:18:31;;;;;;;2.72;0.60;;;21.20;32.00;;;;;;5058378;28;20048;-63
2021/12/10 07:20:58;;;;;;;1.75;0.63;;;21.50;31.70;;;;;;5072043;28;20058;-63
2021/12/10 07:23:24;;;;;;;4.68;0.60;;;21.70;31.40;;;;;;5086141;28;20032;-63
2021/12/10 07:25:53;;;;;;;2.80;1.40;;;22.00;31.10;;;;;;5072861;28;20047;-63
2021/12/10 07:28:19;;;;;;;1.85;1.02;;;22.00;30.70;;;;;;5073073;28;20031;-63
2021/12/10 07:30:47;;;;;;;2.55;1.38;;;21.80;30.50;;;;;;5066675;28;20729;-63
2021/12/10 07:33:16;;;;;;;2.83;1.55;;;21.60;30.70;;;;;;5067841;28;20067;-63
2021/12/10 07:35:49;;;;;;;3.08;1.40;;;21.40;31.00;;;;;;5071186;28;20419;-63
2021/12/10 07:38:15;;;;;;;3.00;1.35;;;21.10;30.80;;;;;;5066638;28;20044;-62
2021/12/10 07:40:41;;;;;;;2.75;1.15;;;21.00;30.80;;;;;;5087077;28;20553;-63
2021/12/10 07:43:07;;;;;;;3.17;1.58;;;21.00;30.90;;;;;;5088580;28;20040;-64
2021/12/10 07:45:34;;;;;;;1.95;1.48;;;21.20;30.70;;;;;;5086234;28;20042;-65
2021/12/10 07:48:06;;;;;;;5.68;1.70;;;21.40;30.20;;;;;;5085481;28;20043;-64
2021/12/10 07:50:35;;;;;;;4.55;1.60;;;21.60;29.90;;;;;;5079104;28;20154;-64
2021/12/10 07:53:03;;;;;;;2.63;1.60;;;21.60;30.20;;;;;;5082019;28;20464;-65
2021/12/10 07:55:31;;;;;;;3.30;1.20;;;21.70;29.40;;;;;;5073931;28;20079;-61
2021/12/10 07:58:02;;;;;;;2.67;1.20;;;22.30;29.10;;;;;;5088447;28;20099;-63
2021/12/10 08:00:31;;;;;;;2.70;1.15;;;23.30;28.40;;;;;;5090788;28;20070;-65
2021/12/10 08:02:56;;;;;;;2.35;0.60;;;24.00;27.80;;;;;;5051142;28;20068;-63
2021/12/10 08:05:23;;;;;;;4.50;0.52;;;24.40;27.70;;;;;;5044343;28;20118;-63
2021/12/10 08:07:51;;;;;;;3.17;0.60;;;24.30;28.00;;;;;;5047282;28;20068;-65
2021/12/10 08:10:17;;;;;;;5.95;0.47;;;24.40;28.20;;;;;;5046817;28;20083;-64
2021/12/10 08:12:43;;;;;;;3.25;0.75;;;24.30;28.20;;;;;;5044278;28;20124;-65
2021/12/10 08:15:10;;;;;;;1.10;0.35;;;24.20;28.40;;;;;;5032655;28;20041;-65
2021/12/10 08:17:37;;;;;;;2.83;0.50;;;24.00;28.70;;;;;;5038370;28;20045;-68
2021/12/10 08:20:07;;;;;;;1.15;0.40;;;23.70;29.00;;;;;;5006594;28;20268;-66
2021/12/10 08:22:33;;;;;;;3.38;0.63;;;23.50;29.30;;;;;;5034640;28;20041;-66
2021/12/10 08:24:58;;;;;;;1.52;0.50;;;23.30;29.60;;;;;;5036159;28;20115;-66
2021/12/10 08:27:25;;;;;;;4.97;0.55;;;23.00;29.80;;;;;;5032314;28;20041;-66
2021/12/10 08:29:51;;;;;;;2.38;0.60;;;22.70;30.20;;;;;;5034834;28;20037;-66
2021/12/10 08:32:20;;;;;;;2.33;0.47;;;22.50;30.80;;;;;;5036064;28;20087;-66
2021/12/10 08:34:47;;;;;;;2.15;0.40;;;22.30;31.00;;;;;;5032868;28;20077;-67
2021/12/10 08:37:13;;;;;;;1.15;0.50;;;22.10;31.20;;;;;;5032803;28;20083;-66
2021/12/10 08:39:39;;;;;;;2.40;0.60;;;21.90;31.50;;;;;;5009595;28;20073;-67
2021/12/10 08:42:06;;;;;;;1.20;0.45;;;21.60;31.60;;;;;;5037766;28;20183;-65
2021/12/10 08:44:33;;;;;;;1.05;0.40;;;21.40;31.80;;;;;;5028415;28;20040;-66
2021/12/10 08:46:59;;;;;;;2.92;0.85;;;21.10;32.00;;;;;;5029648;28;20572;-67
2021/12/10 08:49:27;;;;;;;2.72;0.55;;;20.80;32.50;;;;;;5026265;28;20075;-64
2021/12/10 08:51:57;;;;;;;1.30;0.40;;;20.40;33.00;;;;;;5029577;28;20519;-64
2021/12/10 08:54:27;;;;;;;1.15;0.60;;;20.20;33.50;;;;;;5029393;28;20131;-63
2021/12/10 08:56:54;;;;;;;;;;;19.90;33.90;;;;;;5029111;28;20123;-63
2021/12/10 08:59:22;;;;;;;2.15;0.50;;;19.60;34.00;;;;;;5047138;28;19971;-64
2021/12/10 09:01:51;;;;;;;2.33;0.50;;;19.40;34.70;;;;;;5037851;28;20156;-64
2021/12/10 09:04:16;;;;;;;4.60;0.52;;;19.30;35.00;;;;;;5074518;28;20064;-62
2021/12/10 09:06:48;;;;;;;2.25;0.60;;;19.20;35.20;;;;;;5073614;28;20128;-64
2021/12/10 09:09:15;;;;;;;0.90;0.32;;;19.00;35.20;;;;;;5056894;28;20040;-64
2021/12/10 09:11:47;;;;;;;2.72;0.40;;;19.10;35.40;;;;;;5052313;28;20123;-64
2021/12/10 09:14:17;;;;;;;1.80;0.40;;;19.20;35.40;;;;;;5070533;28;20036;-65
2021/12/10 09:16:44;;;;;;;2.55;0.30;;;19.50;35.00;;;;;;5070930;28;20044;-65
2021/12/10 09:19:13;;;;;;;1.92;0.55;;;19.90;34.40;;;;;;5069998;28;20044;-65
2021/12/10 09:21:40;;;;;;;2.22;0.32;;;20.30;33.70;;;;;;5071602;28;20051;-64
2021/12/10 09:24:07;;;;;;;1.67;0.40;;;20.70;33.10;;;;;;5040895;28;20047;-65
2021/12/10 09:26:36;;;;;;;3.10;0.73;;;21.10;32.50;;;;;;5070502;28;20109;-66
2021/12/10 09:29:09;;;;;;;2.22;1.23;;;21.20;32.00;;;;;;5071174;28;20541;-66
2021/12/10 09:31:39;;;;;;;2.45;1.23;;;21.50;31.20;;;;;;5054946;28;20041;-68
2021/12/10 09:34:05;;;;;;;3.58;1.33;;;21.30;31.00;;;;;;5055673;28;20047;-68
2021/12/10 09:36:32;;;;;;;4.68;1.48;;;21.10;31.10;;;;;;5068386;28;20043;-67
2021/12/10 09:38:58;;;;;;;2.20;1.27;;;20.90;31.20;;;;;;5061966;28;20633;-67
2021/12/10 09:41:26;;;;;;;2.60;1.20;;;20.70;31.20;;;;;;5065876;28;20052;-66
2021/12/10 09:43:53;;;;;;;4.85;0.88;;;20.50;31.40;;;;;;5054403;28;20043;-65
2021/12/10 09:46:19;;;;;;;3.25;0.90;;;20.60;31.50;;;;;;5072517;28;20083;-68
2021/12/10 09:48:47;;;;;;;1.83;0.68;;;20.70;31.30;;;;;;5075881;28;20040;-65
2021/12/10 09:51:21;;;;;;;5.13;1.02;;;20.90;31.10;;;;;;5047473;28;20040;-66
2021/12/10 09:53:50;;;;;;;2.22;0.93;;;21.10;30.80;;;;;;5053401;28;20127;-64
2021/12/10 09:56:18;;;;;;;1.77;1.20;;;21.30;30.40;;;;;;5053959;28;20040;-64
2021/12/10 09:58:44;;;;;;;2.92;0.90;;;21.60;30.00;;;;;;5071177;28;20127;-66
2021/12/10 10:01:17;;;;;;;5.13;0.70;;;22.10;29.80;;;;;;5070529;28;20111;-67
2021/12/10 10:03:49;;;;;;;2.25;0.73;;;22.50;29.50;;;;;;5063555;28;20074;-68
2021/12/10 10:06:15;;;;;;;4.95;0.65;;;22.90;29.40;;;;;;5066369;28;20079;-63
2021/12/10 10:08:42;;;;;;;1.30;0.52;;;23.10;29.40;;;;;;5071255;28;20033;-63
2021/12/10 10:11:14;;;;;;;3.90;0.50;;;23.40;29.30;;;;;;5058116;28;20118;-65
2021/12/10 10:13:43;;;;;;;3.25;0.55;;;23.50;29.30;;;;;;5068988;28;20048;-63
2021/12/10 10:16:11;;;;;;;5.07;0.50;;;23.60;29.20;;;;;;5052160;28;20039;-64
2021/12/10 10:18:39;;;;;;;2.15;0.50;;;23.60;29.40;;;;;;5067141;28;20040;-67
2021/12/10 10:21:10;;;;;;;2.72;0.45;;;23.60;29.60;;;;;;5053073;28;20059;-64
2021/12/10 10:23:38;;;;;;;6.80;0.52;;;23.60;29.60;;;;;;5053497;28;20119;-67
2021/12/10 10:26:12;;;;;;;1.15;0.25;;;23.60;29.50;;;;;;5039911;28;20066;-66
2021/12/10 10:28:39;;;;;;;4.20;0.40;;;23.50;29.60;;;;;;5062058;28;20660;-67
2021/12/10 10:31:11;;;;;;;1.70;0.57;;;23.30;29.60;;;;;;5068821;28;20745;-65
2021/12/10 10:33:39;;;;;;;1.75;0.40;;;23.10;29.70;;;;;;5067686;28;20121;-65
2021/12/10 10:36:11;;;;;;;1.80;0.30;;;22.80;30.00;;;;;;5055169;28;20059;-64
2021/12/10 10:38:38;;;;;;;2.13;0.30;;;22.50;30.10;;;;;;5050599;28;20039;-66
2021/12/10 10:41:08;;;;;;;2.50;0.40;;;22.20;30.60;;;;;;5069370;28;20055;-64
2021/12/10 10:43:35;;;;;;;2.55;0.30;;;21.90;31.70;;;;;;5048034;28;20052;-63
2021/12/10 10:46:01;;;;;;;1.10;0.30;;;21.60;31.30;;;;;;5066652;28;20033;-65
2021/12/10 10:48:28;;;;;;;2.60;0.32;;;21.30;31.60;;;;;;5068408;28;20052;-63
2021/12/10 10:50:59;;;;;;;1.73;0.30;;;21.00;32.00;;;;;;5054116;28;20135;-65
2021/12/10 10:53:31;;;;;;;1.67;0.45;;;20.70;32.30;;;;;;5053618;28;20155;-65
2021/12/10 10:56:03;;;;;;;1.55;0.40;;;20.40;32.80;;;;;;5056615;28;20444;-65
2021/12/10 10:58:36;;;;;;;2.30;0.57;;;20.10;33.10;;;;;;5073535;28;20080;-63
2021/12/10 11:03:51;;;;;;;4.18;0.85;;;19.90;33.60;;;;;;5063864;27;20472;-64
2021/12/10 11:06:25;;;;;;;5.70;0.77;;;19.50;34.70;;;;;;5050682;28;20053;-64
2021/12/10 11:08:54;;;;;;;2.65;0.85;;;19.40;34.80;;;;;;5052679;28;20029;-65
2021/12/10 11:11:25;;;;;;;4.05;0.75;;;19.30;34.90;;;;;;5046822;28;20049;-63
2021/12/10 11:14:11;;;;;;;1.92;0.52;;;19.20;34.80;;;;;;5047343;28;20044;-65
2021/12/10 11:16:42;;;;;;;3.63;0.60;;;19.30;34.60;;;;;;5057170;28;20052;-65
2021/12/10 11:19:12;;;;;;;;;;;19.60;34.30;;;;;;5047704;28;20091;-64
2021/12/10 11:27:08;;;;;;;3.17;1.13;;;20.60;32.30;;;;;;5092801;27;20455;-66
2021/12/10 11:32:26;;;;;;;2.85;0.47;;;20.90;31.80;;;;;;5109259;27;20407;-72
2021/12/10 11:37:48;;;;;;;2.22;0.82;;;21.40;31.40;;;;;;5063234;28;20969;-69
2021/12/10 11:40:40;;;;;;;4.45;0.57;;;21.30;30.70;;;;;;5060765;28;20056;-70
2021/12/10 11:48:44;;;;;;;3.33;0.80;;;21.20;30.80;;;;;;5123573;27;20065;-69
2021/12/10 11:51:21;;;;;;;3.08;0.57;;;21.10;30.70;;;;;;5125552;27;20431;-69
2021/12/10 11:53:52;;;;;;;1.63;0.40;;;20.90;30.70;;;;;;5124324;27;20621;-68
2021/12/10 12:01:49;;;;;;;4.15;0.77;;;21.00;30.70;;;;;;5056014;27;20434;-69
2021/12/10 12:04:21;;;;;;;1.60;0.40;;;21.10;30.50;;;;;;5049518;28;20094;-69
2021/12/10 12:07:07;;;;;;;5.63;0.40;;;21.30;30.30;;;;;;5053981;28;20056;-70
2021/12/10 12:09:39;;;;;;;3.33;0.40;;;21.60;30.00;;;;;;5058098;28;20671;-70
2021/12/10 12:12:10;;;;;;;3.03;0.50;;;21.90;30.00;;;;;;5049469;28;20672;-66
2021/12/10 12:14:40;;;;;;;;;;;22.00;29.90;;;;;;5061220;28;20060;-66
2021/12/10 12:17:07;;;;;;;2.85;0.30;;;22.10;30.10;;;;;;5060120;28;19987;-65
2021/12/10 12:19:35;;;;;;;2.15;0.40;;;22.00;30.10;;;;;;5070234;28;20048;-66
2021/12/10 12:25:17;;;;;;;5.43;0.30;;;21.70;30.70;;;;;;5038861;28;20048;-64
2021/12/10 12:27:32;;;;;;;1.58;0.30;;;21.40;31.10;;;;;;5040910;28;20485;-63
2021/12/10 12:30:04;;;;;;;3.53;0.40;;;21.00;31.70;;;;;;5073212;28;20055;-64
2021/12/10 12:32:36;;;;;;;3.05;0.43;;;20.70;32.40;;;;;;5038589;28;20107;-67
2021/12/10 12:35:25;;;;;;;0.88;0.30;;;20.40;32.90;;;;;;5053227;28;20055;-64
2021/12/10 12:38:07;;;;;;;0.70;0.30;;;20.20;33.60;;;;;;5043119;28;20048;-64
2021/12/10 12:40:34;;;;;;;1.77;0.30;;;20.00;34.20;;;;;;5049932;28;20037;-64
2021/12/10 12:43:04;;;;;;;2.45;0.40;;;19.80;34.60;;;;;;5049868;28;20052;-63
2021/12/10 12:45:31;;;;;;;2.92;0.40;;;19.60;35.00;;;;;;5050407;28;20059;-66
2021/12/10 12:47:57;;;;;;;5.07;0.52;;;19.40;35.10;;;;;;5052444;28;20750;-64
2021/12/10 12:50:28;;;;;;;3.15;0.20;;;19.30;35.40;;;;;;5054039;28;20141;-65
2021/12/10 12:52:55;;;;;;;;;;;19.20;35.70;;;;;;5055011;28;20044;-65
2021/12/10 12:58:23;;;;;;;4.15;0.50;;;19.00;35.60;;;;;;5073609;27;20415;-65
2021/12/10 13:14:51;;;;;;;2.42;0.40;;;18.90;36.80;;;;;;5063335;27;20580;-64
2021/12/10 13:17:22;;;;;;;4.30;0.40;;;19.20;36.50;;;;;;5058893;28;20195;-64
2021/12/10 13:19:49;;;;;;;1.70;0.20;;;19.50;36.40;;;;;;5078548;28;20641;-63
2021/12/10 13:22:18;;;;;;;3.42;0.40;;;19.80;35.50;;;;;;5065486;28;20741;-63
2021/12/10 13:24:47;;;;;;;2.47;0.35;;;20.10;35.00;;;;;;5069904;28;20041;-65
2021/12/10 13:27:22;;;;;;;2.15;0.30;;;20.30;34.50;;;;;;5066982;28;20053;-64
2021/12/10 13:29:48;;;;;;;4.20;0.32;;;20.50;34.10;;;;;;5053920;28;20048;-66
2021/12/10 13:32:14;;;;;;;2.60;0.43;;;20.70;33.90;;;;;;5076361;28;20052;-63
2021/12/10 13:34:40;;;;;;;4.75;0.40;;;20.70;33.50;;;;;;5059719;28;20037;-65
2021/12/10 13:37:09;;;;;;;6.60;0.98;;;20.60;33.20;;;;;;5060073;28;20077;-65
2021/12/10 13:39:35;;;;;;;4.38;0.32;;;20.40;33.00;;;;;;5077643;28;20112;-65
2021/12/10 13:42:02;;;;;;;2.97;0.63;;;20.30;33.40;;;;;;5054423;28;20045;-64
2021/12/10 13:44:41;;;;;;;1.65;0.40;;;20.10;33.80;;;;;;5062636;28;20052;-64
2021/12/10 13:47:20;;;;;;;2.20;0.20;;;19.90;34.40;;;;;;5056082;28;21135;-66
2021/12/10 14:04:19;;;;;;;3.05;0.80;;;19.30;34.80;;;;;;5096175;27;20474;-65
2021/12/10 14:20:53;;;;;;;1.77;0.30;;;20.00;34.20;;;;;;5081738;27;20356;-65
2021/12/10 14:26:00;;;;;;;1.42;0.32;;;20.30;33.60;;;;;;5126726;27;1159192;-64
2021/12/10 14:28:47;;;;;;;2.45;0.40;;;20.80;32.80;;;;;;5145281;27;20051;-63
2021/12/10 14:31:17;;;;;;;2.60;0.30;;;20.90;32.70;;;;;;5145822;27;20531;-65
2021/12/10 14:33:47;;;;;;;4.55;0.43;;;21.00;32.50;;;;;;5127411;27;20084;-63
2021/12/10 14:39:04;;;;;;;1.67;0.45;;;21.00;32.40;;;;;;5081717;28;20359;-64
2021/12/10 14:47:16;;;;;;;0.90;0.25;;;21.00;32.50;;;;;;5125157;27;20731;-67
2021/12/10 14:49:47;;;;;;;1.67;0.32;;;20.50;33.00;;;;;;5123094;28;20047;-63
2021/12/10 14:52:32;;;;;;;;;;;20.20;33.40;;;;;;5118304;28;20035;-63